sensor_id;sensor_type;location;lat;lon;timestamp;temperature;humidity
22065;DHT22;11197;53.110;8.468;2022-07-29T00:01:57;16.20;99.90
22065;DHT22;11197;53.110;8.468;2022-07-29T00:04:23;16.20;99.90
22065;DHT22;11197;53.110;8.468;2022-07-29T00:06:49;16.20;99.90
22065;DHT22;11197;53.110;8.468;2022-07-29T00:09:14;16.20;99.90
22065;DHT22;11197;53.110;8.468;2022-07-29T00:11:40;16.20;99.90
22065;DHT22;11197;53.110;8.468;2022-07-29T00:14:06;16.20;99.90
22065;DHT22;11197;53.110;8.468;2022-07-29T00:16:32;16.20;99.90
22065;DHT22;11197;53.110;8.468;2022-07-29T00:18:58;16.20;99.90
22065;DHT22;11197;53.110;8.468;2022-07-29T00:21:24;16.20;99.90
22065;DHT22;11197;53.110;8.468;2022-07-29T00:23:50;16.10;99.90
22065;DHT22;11197;53.110;8.468;2022-07-29T00:26:17;16.10;99.90
22065;DHT22;11197;53.110;8.468;2022-07-29T00:28:42;16.10;99.90
22065;DHT22;11197;53.110;8.468;2022-07-29T00:31:08;16.10;99.90
22065;DHT22;11197;53.110;8.468;2022-07-29T00:33:34;16.10;99.90
22065;DHT22;11197;53.110;8.468;2022-07-29T00:36:00;16.10;99.90
22065;DHT22;11197;53.110;8.468;2022-07-29T00:38:26;16.10;99.90
22065;DHT22;11197;53.110;8.468;2022-07-29T00:40:52;16.10;99.90
22065;DHT22;11197;53.110;8.468;2022-07-29T00:43:18;16.10;99.90
22065;DHT22;11197;53.110;8.468;2022-07-29T00:45:44;16.10;99.90
22065;DHT22;11197;53.110;8.468;2022-07-29T00:48:10;16.10;99.90
22065;DHT22;11197;53.110;8.468;2022-07-29T00:50:37;16.10;99.90
22065;DHT22;11197;53.110;8.468;2022-07-29T00:53:05;16.00;99.90
22065;DHT22;11197;53.110;8.468;2022-07-29T00:55:32;16.00;99.90
22065;DHT22;11197;53.110;8.468;2022-07-29T00:57:58;16.00;99.90
22065;DHT22;11197;53.110;8.468;2022-07-29T01:00:27;16.00;99.90
22065;DHT22;11197;53.110;8.468;2022-07-29T01:02:53;16.00;99.90
22065;DHT22;11197;53.110;8.468;2022-07-29T01:05:21;16.00;99.90
22065;DHT22;11197;53.110;8.468;2022-07-29T01:07:53;16.00;99.90
22065;DHT22;11197;53.110;8.468;2022-07-29T01:10:20;16.00;99.90
22065;DHT22;11197;53.110;8.468;2022-07-29T01:12:49;16.00;99.90
22065;DHT22;11197;53.110;8.468;2022-07-29T01:15:15;16.00;99.90
22065;DHT22;11197;53.110;8.468;2022-07-29T01:31:07;15.90;99.90
22065;DHT22;11197;53.110;8.468;2022-07-29T01:33:40;15.90;99.90
22065;DHT22;11197;53.110;8.468;2022-07-29T01:36:26;15.90;99.90
22065;DHT22;11197;53.110;8.468;2022-07-29T01:39:35;15.90;99.90
22065;DHT22;11197;53.110;8.468;2022-07-29T01:42:07;15.90;99.90
22065;DHT22;11197;53.110;8.468;2022-07-29T01:44:41;15.90;99.90
22065;DHT22;11197;53.110;8.468;2022-07-29T01:47:15;15.90;99.90
22065;DHT22;11197;53.110;8.468;2022-07-29T01:49:47;15.80;99.90
22065;DHT22;11197;53.110;8.468;2022-07-29T01:52:27;15.90;99.90
22065;DHT22;11197;53.110;8.468;2022-07-29T01:54:59;15.80;99.90
22065;DHT22;11197;53.110;8.468;2022-07-29T01:57:29;15.80;99.90
22065;DHT22;11197;53.110;8.468;2022-07-29T01:59:57;15.80;99.90
22065;DHT22;11197;53.110;8.468;2022-07-29T02:02:24;15.80;99.90
22065;DHT22;11197;53.110;8.468;2022-07-29T02:04:53;15.80;99.90
22065;DHT22;11197;53.110;8.468;2022-07-29T02:07:21;15.80;99.90
22065;DHT22;11197;53.110;8.468;2022-07-29T02:09:50;15.70;99.90
22065;DHT22;11197;53.110;8.468;2022-07-29T02:12:18;15.70;99.90
22065;DHT22;11197;53.110;8.468;2022-07-29T02:14:50;15.70;99.90
22065;DHT22;11197;53.110;8.468;2022-07-29T02:17:26;15.70;99.90
22065;DHT22;11197;53.110;8.468;2022-07-29T02:19:57;15.70;99.90
22065;DHT22;11197;53.110;8.468;2022-07-29T02:22:24;15.70;99.90
22065;DHT22;11197;53.110;8.468;2022-07-29T02:24:51;15.60;99.90
22065;DHT22;11197;53.110;8.468;2022-07-29T02:27:20;15.60;99.90
22065;DHT22;11197;53.110;8.468;2022-07-29T02:29:47;15.60;99.90
22065;DHT22;11197;53.110;8.468;2022-07-29T02:32:15;15.60;99.90
22065;DHT22;11197;53.110;8.468;2022-07-29T02:34:43;15.60;99.90
22065;DHT22;11197;53.110;8.468;2022-07-29T02:37:10;15.60;99.90
22065;DHT22;11197;53.110;8.468;2022-07-29T02:39:37;15.70;99.90
22065;DHT22;11197;53.110;8.468;2022-07-29T02:42:07;15.70;99.90
22065;DHT22;11197;53.110;8.468;2022-07-29T02:44:33;15.70;99.90
22065;DHT22;11197;53.110;8.468;2022-07-29T02:49:38;15.70;99.90
22065;DHT22;11197;53.110;8.468;2022-07-29T02:52:08;15.60;99.90
22065;DHT22;11197;53.110;8.468;2022-07-29T02:54:42;15.60;99.90
22065;DHT22;11197;53.110;8.468;2022-07-29T02:57:51;15.70;99.90
22065;DHT22;11197;53.110;8.468;2022-07-29T03:00:21;15.70;99.90
22065;DHT22;11197;53.110;8.468;2022-07-29T03:02:52;15.60;99.90
22065;DHT22;11197;53.110;8.468;2022-07-29T03:05:20;15.60;99.90
22065;DHT22;11197;53.110;8.468;2022-07-29T03:07:51;15.60;99.90
22065;DHT22;11197;53.110;8.468;2022-07-29T03:10:18;15.60;99.90
22065;DHT22;11197;53.110;8.468;2022-07-29T03:12:44;15.60;99.90
22065;DHT22;11197;53.110;8.468;2022-07-29T03:15:11;15.60;99.90
22065;DHT22;11197;53.110;8.468;2022-07-29T03:17:38;15.60;99.90
22065;DHT22;11197;53.110;8.468;2022-07-29T03:20:06;15.60;99.90
22065;DHT22;11197;53.110;8.468;2022-07-29T03:22:33;15.60;99.90
22065;DHT22;11197;53.110;8.468;2022-07-29T03:25:08;15.50;99.90
22065;DHT22;11197;53.110;8.468;2022-07-29T03:27:34;15.50;99.90
22065;DHT22;11197;53.110;8.468;2022-07-29T03:30:00;15.50;99.90
22065;DHT22;11197;53.110;8.468;2022-07-29T03:32:25;15.50;99.90
22065;DHT22;11197;53.110;8.468;2022-07-29T03:34:52;15.50;99.90
22065;DHT22;11197;53.110;8.468;2022-07-29T03:37:17;15.40;99.90
22065;DHT22;11197;53.110;8.468;2022-07-29T03:39:44;15.40;99.90
22065;DHT22;11197;53.110;8.468;2022-07-29T03:42:13;15.50;99.90
22065;DHT22;11197;53.110;8.468;2022-07-29T03:44:44;15.40;99.90
22065;DHT22;11197;53.110;8.468;2022-07-29T03:47:13;15.40;99.90
22065;DHT22;11197;53.110;8.468;2022-07-29T03:49:41;15.40;99.90
22065;DHT22;11197;53.110;8.468;2022-07-29T03:52:07;15.40;99.90
22065;DHT22;11197;53.110;8.468;2022-07-29T03:54:34;15.40;99.90
22065;DHT22;11197;53.110;8.468;2022-07-29T03:57:01;15.40;99.90
22065;DHT22;11197;53.110;8.468;2022-07-29T03:59:27;15.40;99.90
22065;DHT22;11197;53.110;8.468;2022-07-29T04:01:56;15.40;99.90
22065;DHT22;11197;53.110;8.468;2022-07-29T04:04:23;15.40;99.90
22065;DHT22;11197;53.110;8.468;2022-07-29T04:06:50;15.30;99.90
22065;DHT22;11197;53.110;8.468;2022-07-29T04:09:16;15.30;99.90
22065;DHT22;11197;53.110;8.468;2022-07-29T04:11:42;15.30;99.90
22065;DHT22;11197;53.110;8.468;2022-07-29T04:14:08;15.30;99.90
22065;DHT22;11197;53.110;8.468;2022-07-29T04:16:34;15.30;99.90
22065;DHT22;11197;53.110;8.468;2022-07-29T04:19:00;15.30;99.90
22065;DHT22;11197;53.110;8.468;2022-07-29T04:21:25;15.30;99.90
22065;DHT22;11197;53.110;8.468;2022-07-29T04:23:51;15.30;99.90
22065;DHT22;11197;53.110;8.468;2022-07-29T04:26:18;15.30;99.90
22065;DHT22;11197;53.110;8.468;2022-07-29T04:28:45;15.30;99.90
22065;DHT22;11197;53.110;8.468;2022-07-29T04:31:12;15.30;99.90
22065;DHT22;11197;53.110;8.468;2022-07-29T04:33:39;15.30;99.90
22065;DHT22;11197;53.110;8.468;2022-07-29T04:36:05;15.30;99.90
22065;DHT22;11197;53.110;8.468;2022-07-29T04:38:31;15.30;99.90
22065;DHT22;11197;53.110;8.468;2022-07-29T04:40:56;15.30;99.90
22065;DHT22;11197;53.110;8.468;2022-07-29T04:43:22;15.30;99.90
22065;DHT22;11197;53.110;8.468;2022-07-29T04:45:48;15.30;99.90
22065;DHT22;11197;53.110;8.468;2022-07-29T04:48:14;15.30;99.90
22065;DHT22;11197;53.110;8.468;2022-07-29T04:50:40;15.30;99.90
22065;DHT22;11197;53.110;8.468;2022-07-29T04:53:07;15.30;99.90
22065;DHT22;11197;53.110;8.468;2022-07-29T04:55:33;15.30;99.90
22065;DHT22;11197;53.110;8.468;2022-07-29T04:57:59;15.30;99.90
22065;DHT22;11197;53.110;8.468;2022-07-29T05:00:25;15.30;99.90
22065;DHT22;11197;53.110;8.468;2022-07-29T05:02:51;15.30;99.90
22065;DHT22;11197;53.110;8.468;2022-07-29T05:05:17;15.20;99.90
22065;DHT22;11197;53.110;8.468;2022-07-29T05:07:43;15.20;99.90
22065;DHT22;11197;53.110;8.468;2022-07-29T05:10:09;15.20;99.90
22065;DHT22;11197;53.110;8.468;2022-07-29T05:12:35;15.30;99.90
22065;DHT22;11197;53.110;8.468;2022-07-29T05:15:01;15.30;99.90
22065;DHT22;11197;53.110;8.468;2022-07-29T05:17:28;15.30;99.90
22065;DHT22;11197;53.110;8.468;2022-07-29T05:19:54;15.30;99.90
22065;DHT22;11197;53.110;8.468;2022-07-29T05:22:20;15.30;99.90
22065;DHT22;11197;53.110;8.468;2022-07-29T05:24:46;15.30;99.90
22065;DHT22;11197;53.110;8.468;2022-07-29T05:27:12;15.30;99.90
22065;DHT22;11197;53.110;8.468;2022-07-29T05:29:38;15.30;99.90
22065;DHT22;11197;53.110;8.468;2022-07-29T05:32:05;15.30;99.90
22065;DHT22;11197;53.110;8.468;2022-07-29T05:34:31;15.30;99.90
22065;DHT22;11197;53.110;8.468;2022-07-29T05:36:57;15.30;99.90
22065;DHT22;11197;53.110;8.468;2022-07-29T05:39:23;15.30;99.90
22065;DHT22;11197;53.110;8.468;2022-07-29T05:41:49;15.30;99.90
22065;DHT22;11197;53.110;8.468;2022-07-29T05:44:14;15.30;99.90
22065;DHT22;11197;53.110;8.468;2022-07-29T05:46:40;15.30;99.90
22065;DHT22;11197;53.110;8.468;2022-07-29T05:49:06;15.40;99.90
22065;DHT22;11197;53.110;8.468;2022-07-29T05:51:33;15.40;99.90
22065;DHT22;11197;53.110;8.468;2022-07-29T05:54:00;15.40;99.90
22065;DHT22;11197;53.110;8.468;2022-07-29T05:56:25;15.50;99.90
22065;DHT22;11197;53.110;8.468;2022-07-29T05:58:51;15.50;99.90
22065;DHT22;11197;53.110;8.468;2022-07-29T06:01:18;15.50;99.90
22065;DHT22;11197;53.110;8.468;2022-07-29T06:03:44;15.60;99.90
22065;DHT22;11197;53.110;8.468;2022-07-29T06:06:10;15.50;99.90
22065;DHT22;11197;53.110;8.468;2022-07-29T06:08:36;15.60;99.90
22065;DHT22;11197;53.110;8.468;2022-07-29T06:11:03;15.60;99.90
22065;DHT22;11197;53.110;8.468;2022-07-29T06:13:30;15.60;99.90
22065;DHT22;11197;53.110;8.468;2022-07-29T06:15:56;15.60;99.90
22065;DHT22;11197;53.110;8.468;2022-07-29T06:18:22;15.70;99.90
22065;DHT22;11197;53.110;8.468;2022-07-29T06:20:53;15.70;99.90
22065;DHT22;11197;53.110;8.468;2022-07-29T06:23:20;15.80;99.90
22065;DHT22;11197;53.110;8.468;2022-07-29T06:25:46;15.80;99.90
22065;DHT22;11197;53.110;8.468;2022-07-29T06:28:12;15.80;99.90
22065;DHT22;11197;53.110;8.468;2022-07-29T06:30:39;15.90;99.90
22065;DHT22;11197;53.110;8.468;2022-07-29T06:33:05;15.90;99.90
22065;DHT22;11197;53.110;8.468;2022-07-29T06:35:34;15.90;99.90
22065;DHT22;11197;53.110;8.468;2022-07-29T06:38:02;16.00;99.90
22065;DHT22;11197;53.110;8.468;2022-07-29T06:40:28;16.00;99.90
22065;DHT22;11197;53.110;8.468;2022-07-29T06:43:13;16.00;99.90
22065;DHT22;11197;53.110;8.468;2022-07-29T06:45:39;16.00;99.90
22065;DHT22;11197;53.110;8.468;2022-07-29T06:48:06;16.10;99.90
22065;DHT22;11197;53.110;8.468;2022-07-29T06:50:32;16.10;99.90
22065;DHT22;11197;53.110;8.468;2022-07-29T06:52:58;16.10;99.90
22065;DHT22;11197;53.110;8.468;2022-07-29T06:55:24;16.20;99.90
22065;DHT22;11197;53.110;8.468;2022-07-29T06:57:50;16.20;99.90
22065;DHT22;11197;53.110;8.468;2022-07-29T07:00:17;16.30;99.90
22065;DHT22;11197;53.110;8.468;2022-07-29T07:02:42;16.30;99.90
22065;DHT22;11197;53.110;8.468;2022-07-29T07:05:08;16.40;99.90
22065;DHT22;11197;53.110;8.468;2022-07-29T07:07:34;16.50;99.90
22065;DHT22;11197;53.110;8.468;2022-07-29T07:10:01;16.50;99.90
22065;DHT22;11197;53.110;8.468;2022-07-29T07:12:27;16.50;99.90
22065;DHT22;11197;53.110;8.468;2022-07-29T07:14:53;16.60;99.90
22065;DHT22;11197;53.110;8.468;2022-07-29T07:17:19;16.60;99.90
22065;DHT22;11197;53.110;8.468;2022-07-29T07:19:44;16.70;99.90
22065;DHT22;11197;53.110;8.468;2022-07-29T07:22:10;16.80;99.90
22065;DHT22;11197;53.110;8.468;2022-07-29T07:24:36;17.00;99.90
22065;DHT22;11197;53.110;8.468;2022-07-29T07:27:02;17.10;99.90
22065;DHT22;11197;53.110;8.468;2022-07-29T07:29:28;17.30;99.90
22065;DHT22;11197;53.110;8.468;2022-07-29T07:31:54;17.50;99.90
22065;DHT22;11197;53.110;8.468;2022-07-29T07:34:20;17.60;99.90
22065;DHT22;11197;53.110;8.468;2022-07-29T07:36:46;17.80;99.90
22065;DHT22;11197;53.110;8.468;2022-07-29T07:39:12;17.90;99.90
22065;DHT22;11197;53.110;8.468;2022-07-29T07:41:38;18.00;99.90
22065;DHT22;11197;53.110;8.468;2022-07-29T07:44:04;18.10;99.90
22065;DHT22;11197;53.110;8.468;2022-07-29T07:46:30;18.10;99.90
22065;DHT22;11197;53.110;8.468;2022-07-29T07:48:56;18.20;99.90
22065;DHT22;11197;53.110;8.468;2022-07-29T07:51:22;18.20;99.90
22065;DHT22;11197;53.110;8.468;2022-07-29T07:53:48;18.30;99.90
22065;DHT22;11197;53.110;8.468;2022-07-29T07:56:16;18.30;99.90
22065;DHT22;11197;53.110;8.468;2022-07-29T07:58:42;18.40;99.90
22065;DHT22;11197;53.110;8.468;2022-07-29T08:01:09;18.60;99.90
22065;DHT22;11197;53.110;8.468;2022-07-29T08:03:35;18.60;99.90
22065;DHT22;11197;53.110;8.468;2022-07-29T08:06:02;18.70;99.90
22065;DHT22;11197;53.110;8.468;2022-07-29T08:08:28;18.70;99.90
22065;DHT22;11197;53.110;8.468;2022-07-29T08:10:54;18.70;99.90
22065;DHT22;11197;53.110;8.468;2022-07-29T08:13:25;18.80;99.90
22065;DHT22;11197;53.110;8.468;2022-07-29T08:15:54;18.80;99.90
22065;DHT22;11197;53.110;8.468;2022-07-29T08:18:37;18.90;99.90
22065;DHT22;11197;53.110;8.468;2022-07-29T08:21:03;18.90;99.90
22065;DHT22;11197;53.110;8.468;2022-07-29T08:23:29;18.90;99.90
22065;DHT22;11197;53.110;8.468;2022-07-29T08:26:09;19.00;99.90
22065;DHT22;11197;53.110;8.468;2022-07-29T08:28:37;19.00;99.90
22065;DHT22;11197;53.110;8.468;2022-07-29T08:31:03;19.10;99.90
22065;DHT22;11197;53.110;8.468;2022-07-29T08:33:29;19.10;99.90
22065;DHT22;11197;53.110;8.468;2022-07-29T08:35:55;19.20;99.90
22065;DHT22;11197;53.110;8.468;2022-07-29T08:38:21;19.30;99.90
22065;DHT22;11197;53.110;8.468;2022-07-29T08:40:47;19.30;99.90
22065;DHT22;11197;53.110;8.468;2022-07-29T08:43:14;19.40;99.90
22065;DHT22;11197;53.110;8.468;2022-07-29T08:45:50;19.50;99.90
22065;DHT22;11197;53.110;8.468;2022-07-29T08:48:18;19.50;99.90
22065;DHT22;11197;53.110;8.468;2022-07-29T08:50:47;19.50;99.90
22065;DHT22;11197;53.110;8.468;2022-07-29T08:53:15;19.50;99.90
22065;DHT22;11197;53.110;8.468;2022-07-29T08:55:43;19.50;99.90
22065;DHT22;11197;53.110;8.468;2022-07-29T08:58:09;19.50;99.90
22065;DHT22;11197;53.110;8.468;2022-07-29T09:00:43;19.50;99.90
22065;DHT22;11197;53.110;8.468;2022-07-29T09:03:12;19.60;99.90
22065;DHT22;11197;53.110;8.468;2022-07-29T09:05:45;19.60;99.90
22065;DHT22;11197;53.110;8.468;2022-07-29T09:08:13;19.60;99.90
22065;DHT22;11197;53.110;8.468;2022-07-29T09:10:40;19.60;99.90
22065;DHT22;11197;53.110;8.468;2022-07-29T09:13:06;19.60;99.90
22065;DHT22;11197;53.110;8.468;2022-07-29T09:15:32;19.70;99.90
22065;DHT22;11197;53.110;8.468;2022-07-29T09:17:58;19.80;99.90
22065;DHT22;11197;53.110;8.468;2022-07-29T09:20:26;19.80;99.90
22065;DHT22;11197;53.110;8.468;2022-07-29T09:23:12;19.90;99.90
22065;DHT22;11197;53.110;8.468;2022-07-29T09:25:40;19.90;99.90
22065;DHT22;11197;53.110;8.468;2022-07-29T09:30:58;20.00;99.90
22065;DHT22;11197;53.110;8.468;2022-07-29T09:33:33;20.00;99.90
22065;DHT22;11197;53.110;8.468;2022-07-29T09:36:07;20.00;99.90
22065;DHT22;11197;53.110;8.468;2022-07-29T09:38:34;20.00;99.90
22065;DHT22;11197;53.110;8.468;2022-07-29T09:41:03;20.10;99.90
22065;DHT22;11197;53.110;8.468;2022-07-29T09:43:30;20.10;99.90
22065;DHT22;11197;53.110;8.468;2022-07-29T09:45:56;20.20;99.90
22065;DHT22;11197;53.110;8.468;2022-07-29T09:48:24;20.20;99.90
22065;DHT22;11197;53.110;8.468;2022-07-29T09:50:51;20.20;99.90
22065;DHT22;11197;53.110;8.468;2022-07-29T09:53:44;20.30;99.90
22065;DHT22;11197;53.110;8.468;2022-07-29T09:56:11;20.30;99.90
22065;DHT22;11197;53.110;8.468;2022-07-29T09:58:38;20.40;99.90
22065;DHT22;11197;53.110;8.468;2022-07-29T10:01:04;20.50;99.90
22065;DHT22;11197;53.110;8.468;2022-07-29T10:03:30;20.60;99.90
22065;DHT22;11197;53.110;8.468;2022-07-29T10:06:10;20.70;99.90
22065;DHT22;11197;53.110;8.468;2022-07-29T10:08:41;20.80;99.90
22065;DHT22;11197;53.110;8.468;2022-07-29T10:11:17;20.90;99.90
22065;DHT22;11197;53.110;8.468;2022-07-29T10:13:47;21.00;99.90
22065;DHT22;11197;53.110;8.468;2022-07-29T10:16:14;21.10;99.90
22065;DHT22;11197;53.110;8.468;2022-07-29T10:18:44;21.10;99.90
22065;DHT22;11197;53.110;8.468;2022-07-29T10:21:10;21.10;99.90
22065;DHT22;11197;53.110;8.468;2022-07-29T10:23:37;21.20;99.90
22065;DHT22;11197;53.110;8.468;2022-07-29T10:26:04;21.30;99.90
22065;DHT22;11197;53.110;8.468;2022-07-29T10:28:31;21.30;99.90
22065;DHT22;11197;53.110;8.468;2022-07-29T10:31:05;21.30;99.90
22065;DHT22;11197;53.110;8.468;2022-07-29T10:36:40;21.60;99.90
22065;DHT22;11197;53.110;8.468;2022-07-29T10:44:40;21.70;99.20
22065;DHT22;11197;53.110;8.468;2022-07-29T10:47:07;21.80;99.00
22065;DHT22;11197;53.110;8.468;2022-07-29T10:49:33;21.80;98.80
22065;DHT22;11197;53.110;8.468;2022-07-29T10:57:28;22.00;98.00
22065;DHT22;11197;53.110;8.468;2022-07-29T11:07:39;22.50;97.10
22065;DHT22;11197;53.110;8.468;2022-07-29T11:15:14;22.80;96.00
22065;DHT22;11197;53.110;8.468;2022-07-29T11:20:36;23.00;95.30
22065;DHT22;11197;53.110;8.468;2022-07-29T11:23:27;23.00;94.90
22065;DHT22;11197;53.110;8.468;2022-07-29T11:26:16;23.10;95.10
22065;DHT22;11197;53.110;8.468;2022-07-29T11:29:05;23.10;95.00
22065;DHT22;11197;53.110;8.468;2022-07-29T11:31:33;23.10;95.30
22065;DHT22;11197;53.110;8.468;2022-07-29T11:34:19;23.20;95.90
22065;DHT22;11197;53.110;8.468;2022-07-29T11:47:24;23.30;94.90
22065;DHT22;11197;53.110;8.468;2022-07-29T11:49:52;23.30;94.80
22065;DHT22;11197;53.110;8.468;2022-07-29T11:52:19;23.30;94.40
22065;DHT22;11197;53.110;8.468;2022-07-29T11:54:50;23.30;94.40
22065;DHT22;11197;53.110;8.468;2022-07-29T11:57:19;23.30;94.40
22065;DHT22;11197;53.110;8.468;2022-07-29T11:59:46;23.30;94.40
22065;DHT22;11197;53.110;8.468;2022-07-29T12:02:14;23.30;94.40
22065;DHT22;11197;53.110;8.468;2022-07-29T12:04:54;23.30;94.60
22065;DHT22;11197;53.110;8.468;2022-07-29T12:07:31;23.30;94.30
22065;DHT22;11197;53.110;8.468;2022-07-29T12:09:58;23.40;93.80
22065;DHT22;11197;53.110;8.468;2022-07-29T12:12:24;23.40;93.80
22065;DHT22;11197;53.110;8.468;2022-07-29T12:14:51;23.30;94.00
22065;DHT22;11197;53.110;8.468;2022-07-29T12:17:49;23.40;93.90
22065;DHT22;11197;53.110;8.468;2022-07-29T12:20:26;23.40;94.10
22065;DHT22;11197;53.110;8.468;2022-07-29T12:22:53;23.40;94.30
22065;DHT22;11197;53.110;8.468;2022-07-29T12:25:20;23.50;93.50
22065;DHT22;11197;53.110;8.468;2022-07-29T12:27:57;23.40;93.00
22065;DHT22;11197;53.110;8.468;2022-07-29T12:30:37;23.50;92.10
22065;DHT22;11197;53.110;8.468;2022-07-29T12:35:50;23.50;92.40
22065;DHT22;11197;53.110;8.468;2022-07-29T12:38:17;23.50;92.70
22065;DHT22;11197;53.110;8.468;2022-07-29T12:40:45;23.60;92.30
22065;DHT22;11197;53.110;8.468;2022-07-29T12:43:20;23.60;92.40
22065;DHT22;11197;53.110;8.468;2022-07-29T12:45:48;23.60;92.30
22065;DHT22;11197;53.110;8.468;2022-07-29T12:48:16;23.60;92.10
22065;DHT22;11197;53.110;8.468;2022-07-29T12:50:54;23.60;91.80
22065;DHT22;11197;53.110;8.468;2022-07-29T12:53:20;23.70;91.90
22065;DHT22;11197;53.110;8.468;2022-07-29T12:55:48;23.70;91.70
22065;DHT22;11197;53.110;8.468;2022-07-29T13:01:05;23.70;91.40
22065;DHT22;11197;53.110;8.468;2022-07-29T13:03:52;23.80;90.60
22065;DHT22;11197;53.110;8.468;2022-07-29T13:09:16;23.90;90.70
22065;DHT22;11197;53.110;8.468;2022-07-29T13:11:44;23.90;90.90
22065;DHT22;11197;53.110;8.468;2022-07-29T13:14:20;23.90;90.30
22065;DHT22;11197;53.110;8.468;2022-07-29T13:17:06;23.90;90.30
22065;DHT22;11197;53.110;8.468;2022-07-29T13:19:43;23.90;90.50
22065;DHT22;11197;53.110;8.468;2022-07-29T13:22:11;24.00;90.10
22065;DHT22;11197;53.110;8.468;2022-07-29T13:24:55;24.00;89.10
22065;DHT22;11197;53.110;8.468;2022-07-29T13:27:24;24.00;89.40
22065;DHT22;11197;53.110;8.468;2022-07-29T13:29:50;24.00;88.30
22065;DHT22;11197;53.110;8.468;2022-07-29T13:32:19;24.10;88.30
22065;DHT22;11197;53.110;8.468;2022-07-29T13:34:45;24.10;88.60
22065;DHT22;11197;53.110;8.468;2022-07-29T13:37:11;24.10;88.80
22065;DHT22;11197;53.110;8.468;2022-07-29T13:39:37;24.10;88.70
22065;DHT22;11197;53.110;8.468;2022-07-29T13:42:04;24.10;88.20
22065;DHT22;11197;53.110;8.468;2022-07-29T13:44:30;24.10;88.20
22065;DHT22;11197;53.110;8.468;2022-07-29T13:46:56;24.10;87.90
22065;DHT22;11197;53.110;8.468;2022-07-29T13:49:25;24.10;87.30
22065;DHT22;11197;53.110;8.468;2022-07-29T13:51:50;24.10;86.90
22065;DHT22;11197;53.110;8.468;2022-07-29T13:54:16;24.20;86.70
22065;DHT22;11197;53.110;8.468;2022-07-29T13:56:42;24.20;85.20
22065;DHT22;11197;53.110;8.468;2022-07-29T13:59:08;24.10;85.70
22065;DHT22;11197;53.110;8.468;2022-07-29T14:01:35;24.20;85.60
22065;DHT22;11197;53.110;8.468;2022-07-29T14:04:01;24.20;86.00
22065;DHT22;11197;53.110;8.468;2022-07-29T14:06:27;24.20;86.10
22065;DHT22;11197;53.110;8.468;2022-07-29T14:08:53;24.20;86.60
22065;DHT22;11197;53.110;8.468;2022-07-29T14:11:18;24.20;85.70
22065;DHT22;11197;53.110;8.468;2022-07-29T14:13:44;24.20;85.40
22065;DHT22;11197;53.110;8.468;2022-07-29T14:16:10;24.20;85.90
22065;DHT22;11197;53.110;8.468;2022-07-29T14:18:36;24.20;86.00
22065;DHT22;11197;53.110;8.468;2022-07-29T14:21:03;24.10;85.80
22065;DHT22;11197;53.110;8.468;2022-07-29T14:23:29;24.10;86.10
22065;DHT22;11197;53.110;8.468;2022-07-29T14:25:55;24.20;85.60
22065;DHT22;11197;53.110;8.468;2022-07-29T14:28:21;24.10;85.60
22065;DHT22;11197;53.110;8.468;2022-07-29T14:30:47;24.10;86.10
22065;DHT22;11197;53.110;8.468;2022-07-29T14:33:13;24.10;86.00
22065;DHT22;11197;53.110;8.468;2022-07-29T14:35:39;24.10;85.70
22065;DHT22;11197;53.110;8.468;2022-07-29T14:38:05;24.20;85.60
22065;DHT22;11197;53.110;8.468;2022-07-29T14:40:31;24.20;85.50
22065;DHT22;11197;53.110;8.468;2022-07-29T14:42:57;24.20;85.50
22065;DHT22;11197;53.110;8.468;2022-07-29T14:45:23;24.10;85.50
22065;DHT22;11197;53.110;8.468;2022-07-29T14:47:49;24.10;86.10
22065;DHT22;11197;53.110;8.468;2022-07-29T14:50:16;24.10;86.60
22065;DHT22;11197;53.110;8.468;2022-07-29T14:52:43;24.10;87.20
22065;DHT22;11197;53.110;8.468;2022-07-29T14:55:09;24.10;88.00
22065;DHT22;11197;53.110;8.468;2022-07-29T14:57:35;24.00;89.20
22065;DHT22;11197;53.110;8.468;2022-07-29T15:00:06;24.00;90.00
22065;DHT22;11197;53.110;8.468;2022-07-29T15:02:33;24.00;90.50
22065;DHT22;11197;53.110;8.468;2022-07-29T15:04:59;24.00;91.10
22065;DHT22;11197;53.110;8.468;2022-07-29T15:07:25;23.90;91.70
22065;DHT22;11197;53.110;8.468;2022-07-29T15:09:51;23.90;92.20
22065;DHT22;11197;53.110;8.468;2022-07-29T15:12:17;23.90;92.80
22065;DHT22;11197;53.110;8.468;2022-07-29T15:14:43;23.80;93.30
22065;DHT22;11197;53.110;8.468;2022-07-29T15:17:09;23.80;94.00
22065;DHT22;11197;53.110;8.468;2022-07-29T15:19:35;23.70;94.50
22065;DHT22;11197;53.110;8.468;2022-07-29T15:22:01;23.70;95.00
22065;DHT22;11197;53.110;8.468;2022-07-29T15:24:27;23.60;94.90
22065;DHT22;11197;53.110;8.468;2022-07-29T15:26:53;23.60;95.00
22065;DHT22;11197;53.110;8.468;2022-07-29T15:29:19;23.60;95.00
22065;DHT22;11197;53.110;8.468;2022-07-29T15:31:45;23.50;95.00
22065;DHT22;11197;53.110;8.468;2022-07-29T15:34:11;23.50;95.00
22065;DHT22;11197;53.110;8.468;2022-07-29T15:36:37;23.40;94.80
22065;DHT22;11197;53.110;8.468;2022-07-29T15:39:03;23.30;94.80
22065;DHT22;11197;53.110;8.468;2022-07-29T15:41:29;23.30;94.70
22065;DHT22;11197;53.110;8.468;2022-07-29T15:43:55;23.30;94.70
22065;DHT22;11197;53.110;8.468;2022-07-29T15:46:21;23.30;94.70
22065;DHT22;11197;53.110;8.468;2022-07-29T15:49:06;23.20;94.50
22065;DHT22;11197;53.110;8.468;2022-07-29T15:51:32;23.20;94.30
22065;DHT22;11197;53.110;8.468;2022-07-29T15:54:00;23.20;94.10
22065;DHT22;11197;53.110;8.468;2022-07-29T15:56:27;23.10;93.80
22065;DHT22;11197;53.110;8.468;2022-07-29T15:58:53;23.10;93.80
22065;DHT22;11197;53.110;8.468;2022-07-29T16:01:19;23.10;93.80
22065;DHT22;11197;53.110;8.468;2022-07-29T16:03:45;23.00;93.70
22065;DHT22;11197;53.110;8.468;2022-07-29T16:06:10;23.00;93.70
22065;DHT22;11197;53.110;8.468;2022-07-29T16:08:36;23.00;93.70
22065;DHT22;11197;53.110;8.468;2022-07-29T16:11:02;23.00;93.60
22065;DHT22;11197;53.110;8.468;2022-07-29T16:13:28;22.90;93.70
22065;DHT22;11197;53.110;8.468;2022-07-29T16:15:57;22.90;94.00
22065;DHT22;11197;53.110;8.468;2022-07-29T16:18:23;22.90;94.30
22065;DHT22;11197;53.110;8.468;2022-07-29T16:20:49;22.80;94.80
22065;DHT22;11197;53.110;8.468;2022-07-29T16:23:15;22.80;95.40
22065;DHT22;11197;53.110;8.468;2022-07-29T16:25:41;22.70;95.80
22065;DHT22;11197;53.110;8.468;2022-07-29T16:28:07;22.70;96.30
22065;DHT22;11197;53.110;8.468;2022-07-29T16:30:35;22.70;96.90
22065;DHT22;11197;53.110;8.468;2022-07-29T16:33:01;22.70;97.30
22065;DHT22;11197;53.110;8.468;2022-07-29T16:35:27;22.60;97.80
22065;DHT22;11197;53.110;8.468;2022-07-29T16:37:55;22.60;98.20
22065;DHT22;11197;53.110;8.468;2022-07-29T16:40:21;22.60;98.40
22065;DHT22;11197;53.110;8.468;2022-07-29T16:42:47;22.60;98.60
22065;DHT22;11197;53.110;8.468;2022-07-29T16:45:14;22.50;98.80